createdAt,value
2022-12-28T00:01:21.371Z,13.73
2022-12-28T00:03:49.192Z,14.93
2022-12-28T00:06:16.829Z,13.50
2022-12-28T00:08:44.258Z,14.93
2022-12-28T00:11:27.756Z,13.17
2022-12-28T00:13:56.051Z,13.13
2022-12-28T00:16:33.550Z,13.67
2022-12-28T00:19:02.307Z,13.27
2022-12-28T00:21:29.232Z,12.97
2022-12-28T00:23:58.235Z,13.47
2022-12-28T00:26:27.470Z,12.83
2022-12-28T00:28:58.273Z,13.50
2022-12-28T00:31:28.822Z,13.80
2022-12-28T00:33:56.305Z,14.63
2022-12-28T00:36:22.991Z,13.57
2022-12-28T00:38:49.851Z,13.50
2022-12-28T00:41:17.061Z,11.83
2022-12-28T00:43:44.601Z,12.73
2022-12-28T00:46:11.308Z,13.23
2022-12-28T00:48:38.055Z,13.20
2022-12-28T00:51:07.511Z,12.60
2022-12-28T00:53:34.345Z,13.73
2022-12-28T00:56:12.771Z,12.60
2022-12-28T00:58:39.637Z,12.77
2022-12-28T01:01:12.280Z,12.50
2022-12-28T01:03:39.230Z,10.63
2022-12-28T01:06:07.063Z,12.20
2022-12-28T01:08:35.441Z,11.67
2022-12-28T01:11:11.080Z,10.53
2022-12-28T01:13:38.606Z,10.60
2022-12-28T01:16:17.315Z,10.80
2022-12-28T01:18:45.527Z,10.20
2022-12-28T01:21:16.452Z,10.07
2022-12-28T01:23:48.115Z,9.53
2022-12-28T01:26:15.430Z,9.60
2022-12-28T01:28:42.481Z,8.50
2022-12-28T01:31:14.481Z,8.23
2022-12-28T01:33:42.439Z,8.87
2022-12-28T01:36:11.682Z,8.13
2022-12-28T01:38:38.351Z,7.63
2022-12-28T01:41:16.750Z,7.93
2022-12-28T01:43:44.858Z,7.90
2022-12-28T01:46:21.850Z,7.47
2022-12-28T01:49:05.735Z,6.73
2022-12-28T01:51:50.344Z,7.13
2022-12-28T01:54:18.741Z,7.60
2022-12-28T01:56:46.235Z,6.97
2022-12-28T01:59:13.090Z,6.63
2022-12-28T02:01:40.545Z,6.90
2022-12-28T02:04:07.352Z,6.37
2022-12-28T02:06:34.102Z,7.30
2022-12-28T02:09:22.951Z,7.07
2022-12-28T02:11:50.393Z,6.30
2022-12-28T02:14:19.954Z,6.23
2022-12-28T02:16:47.058Z,5.77
2022-12-28T02:19:19.509Z,5.47
2022-12-28T02:22:08.452Z,5.50
2022-12-28T02:25:12.142Z,5.97
2022-12-28T02:27:51.922Z,5.43
2022-12-28T02:30:19.520Z,5.67
2022-12-28T02:32:58.448Z,5.30
2022-12-28T02:35:48.269Z,5.43
2022-12-28T02:38:20.196Z,5.20
2022-12-28T02:41:09.333Z,5.30
2022-12-28T02:43:36.306Z,5.13
2022-12-28T02:46:43.666Z,5.37
2022-12-28T02:49:43.591Z,4.70
2022-12-28T02:52:29.112Z,4.60
2022-12-28T02:55:45.152Z,4.73
2022-12-28T02:58:39.068Z,4.93
2022-12-28T03:01:26.149Z,5.23
2022-12-28T03:04:37.663Z,4.83
2022-12-28T03:07:35.759Z,4.63
2022-12-28T03:10:15.693Z,5.13
2022-12-28T03:12:51.518Z,5.07
2022-12-28T03:15:29.899Z,4.87
2022-12-28T03:18:26.309Z,4.90
2022-12-28T03:21:15.012Z,4.87
2022-12-28T03:24:03.238Z,5.27
2022-12-28T03:26:51.948Z,4.60
2022-12-28T03:29:41.297Z,5.20
2022-12-28T03:32:09.455Z,5.17
2022-12-28T03:34:36.924Z,5.07
2022-12-28T03:37:25.798Z,5.60
2022-12-28T03:40:08.802Z,5.93
2022-12-28T03:43:07.263Z,6.00
2022-12-28T03:46:04.881Z,5.13
2022-12-28T03:48:34.292Z,4.47
2022-12-28T03:51:01.457Z,5.80
2022-12-28T03:53:36.434Z,6.23
2022-12-28T03:56:18.404Z,6.10
2022-12-28T03:58:45.426Z,5.80
2022-12-28T04:01:12.637Z,5.80
2022-12-28T04:03:39.812Z,5.33
2022-12-28T04:06:06.951Z,5.57
2022-12-28T04:08:34.160Z,5.70
2022-12-28T04:11:02.143Z,6.10
2022-12-28T04:13:30.829Z,5.13
2022-12-28T04:15:58.335Z,6.37
2022-12-28T04:18:25.217Z,6.17
2022-12-28T04:20:53.025Z,5.63
2022-12-28T04:23:20.224Z,5.80
2022-12-28T04:26:11.366Z,5.20
2022-12-28T04:28:38.829Z,5.50
2022-12-28T04:31:07.024Z,4.57
2022-12-28T04:33:36.204Z,5.50
2022-12-28T04:36:06.989Z,4.77
2022-12-28T04:38:34.494Z,5.07
2022-12-28T04:41:02.060Z,5.70
2022-12-28T04:43:30.985Z,4.97
2022-12-28T04:45:58.982Z,4.63
2022-12-28T04:48:26.729Z,5.50
2022-12-28T04:50:55.070Z,4.70
2022-12-28T04:53:22.187Z,5.30
2022-12-28T04:55:49.481Z,4.03
2022-12-28T04:58:16.539Z,5.17
2022-12-28T05:00:43.629Z,5.03
2022-12-28T05:03:10.348Z,5.33
2022-12-28T05:05:38.225Z,4.90
2022-12-28T05:08:05.590Z,4.50
2022-12-28T05:10:32.272Z,5.20
2022-12-28T05:12:58.988Z,5.13
2022-12-28T05:15:25.743Z,4.13
2022-12-28T05:17:52.502Z,4.23
2022-12-28T05:20:20.603Z,4.97
2022-12-28T05:22:47.332Z,4.47
2022-12-28T05:25:14.138Z,4.57
2022-12-28T05:27:42.076Z,4.43
2022-12-28T05:30:09.353Z,4.20
2022-12-28T05:32:36.163Z,3.93
2022-12-28T05:35:02.932Z,5.03
2022-12-28T05:37:29.645Z,3.97
2022-12-28T05:39:56.624Z,4.13
2022-12-28T05:42:23.343Z,4.50
2022-12-28T05:44:50.054Z,4.23
2022-12-28T05:47:16.705Z,4.33
2022-12-28T05:49:43.536Z,4.40
2022-12-28T05:52:10.354Z,3.60
2022-12-28T05:54:37.006Z,3.80
2022-12-28T05:57:03.767Z,4.20
2022-12-28T05:59:30.469Z,3.27
2022-12-28T06:01:57.294Z,3.87
2022-12-28T06:04:24.754Z,3.43
2022-12-28T06:06:51.510Z,4.30
2022-12-28T06:09:18.224Z,4.13
2022-12-28T06:11:45.873Z,3.77
2022-12-28T06:14:13.040Z,4.13
2022-12-28T06:16:41.908Z,4.10
2022-12-28T06:19:12.462Z,4.60
2022-12-28T06:21:40.458Z,4.40
2022-12-28T06:24:27.533Z,3.87
2022-12-28T06:26:54.196Z,3.97
2022-12-28T06:29:21.369Z,4.00
2022-12-28T06:31:49.180Z,3.80
2022-12-28T06:34:15.947Z,3.73
2022-12-28T06:36:45.395Z,4.23
2022-12-28T06:39:14.099Z,4.85
2022-12-28T06:41:41.539Z,4.20
2022-12-28T06:44:10.678Z,4.20
2022-12-28T06:46:37.937Z,3.97
2022-12-28T06:49:04.788Z,4.10
2022-12-28T06:51:36.198Z,3.93
2022-12-28T06:54:03.030Z,4.33
2022-12-28T06:56:32.373Z,3.70
2022-12-28T06:59:03.286Z,3.93
2022-12-28T07:01:33.976Z,3.60
2022-12-28T07:04:03.349Z,3.77
2022-12-28T07:06:34.071Z,3.60
2022-12-28T07:09:02.859Z,4.07
2022-12-28T07:11:30.382Z,3.90
2022-12-28T07:13:57.159Z,4.10
2022-12-28T07:16:27.109Z,4.10
2022-12-28T07:18:53.918Z,4.30
2022-12-28T07:21:25.632Z,3.90
2022-12-28T07:23:53.967Z,3.90
2022-12-28T07:26:23.267Z,3.83
2022-12-28T07:28:52.542Z,4.17
2022-12-28T07:31:21.837Z,4.13
2022-12-28T07:33:50.161Z,4.30
2022-12-28T07:36:19.831Z,4.00
2022-12-28T07:38:46.856Z,4.07
2022-12-28T07:41:25.655Z,4.47
2022-12-28T07:43:52.599Z,3.53
2022-12-28T07:46:25.617Z,3.53
2022-12-28T07:48:53.545Z,3.47
2022-12-28T07:51:27.190Z,3.73
2022-12-28T07:53:55.159Z,3.80
2022-12-28T07:56:23.547Z,3.90
2022-12-28T07:58:54.825Z,3.73
2022-12-28T08:01:24.208Z,3.90
2022-12-28T08:03:56.497Z,4.00
2022-12-28T08:06:23.788Z,4.10
2022-12-28T08:08:56.626Z,4.23
2022-12-28T08:11:26.475Z,3.73
2022-12-28T08:13:55.355Z,3.97
2022-12-28T08:16:24.456Z,4.17
2022-12-28T08:18:51.222Z,4.17
2022-12-28T08:21:23.839Z,4.07
2022-12-28T08:23:50.937Z,4.07
2022-12-28T08:26:27.023Z,4.30
2022-12-28T08:28:56.445Z,4.40
2022-12-28T08:31:26.207Z,4.30
2022-12-28T08:33:54.628Z,4.90
2022-12-28T08:36:21.978Z,4.43
2022-12-28T08:38:48.863Z,4.23
2022-12-28T08:41:18.421Z,4.73
2022-12-28T08:43:46.103Z,4.30
2022-12-28T08:46:18.531Z,4.50
2022-12-28T08:48:46.341Z,4.50
2022-12-28T08:51:18.751Z,4.13
2022-12-28T08:53:46.264Z,4.37
2022-12-28T08:56:18.219Z,4.30
2022-12-28T08:58:46.533Z,3.80
2022-12-28T09:01:16.501Z,3.90
2022-12-28T09:03:47.665Z,4.30
2022-12-28T09:06:17.149Z,4.63
2022-12-28T09:08:51.397Z,4.03
2022-12-28T09:11:31.181Z,4.00
2022-12-28T09:13:57.851Z,4.27
2022-12-28T09:16:27.618Z,4.30
2022-12-28T09:18:56.325Z,4.70
2022-12-28T09:21:25.794Z,4.17
2022-12-28T09:23:52.627Z,4.87
2022-12-28T09:26:21.494Z,4.40
2022-12-28T09:28:50.438Z,4.00
2022-12-28T09:31:18.480Z,4.50
2022-12-28T09:36:48.044Z,4.30
2022-12-28T09:39:17.736Z,4.27
2022-12-28T09:42:21.688Z,4.30
2022-12-28T09:44:56.083Z,3.80
2022-12-28T09:47:34.943Z,4.27
2022-12-28T09:50:16.809Z,3.43
2022-12-28T09:52:58.183Z,3.90
2022-12-28T09:55:25.879Z,3.53
2022-12-28T09:57:55.968Z,3.53
2022-12-28T10:00:38.126Z,3.30
2022-12-28T10:03:24.709Z,3.60
2022-12-28T10:05:51.975Z,3.60
2022-12-28T10:08:22.683Z,3.87
2022-12-28T10:10:51.438Z,3.37
2022-12-28T10:13:53.159Z,3.53
2022-12-28T10:16:18.014Z,3.67
2022-12-28T10:18:46.121Z,4.00
2022-12-28T10:21:13.987Z,3.80
2022-12-28T10:24:04.496Z,3.40
2022-12-28T10:26:30.013Z,3.53
2022-12-28T10:29:01.002Z,3.73
2022-12-28T10:31:32.211Z,3.70
2022-12-28T10:33:59.579Z,3.77
2022-12-28T10:36:31.575Z,3.47
2022-12-28T10:38:58.780Z,3.47
2022-12-28T10:41:35.860Z,3.03
2022-12-28T10:44:40.594Z,2.90
2022-12-28T10:47:27.628Z,3.13
2022-12-28T10:50:26.599Z,3.20
2022-12-28T10:52:41.840Z,3.10
2022-12-28T10:55:28.182Z,2.70
2022-12-28T11:00:44.540Z,2.30
2022-12-28T11:03:18.881Z,2.50
2022-12-28T11:05:45.803Z,2.53
2022-12-28T11:08:16.362Z,2.50
2022-12-28T11:10:43.436Z,2.50
2022-12-28T11:13:22.271Z,1.97
2022-12-28T11:15:49.385Z,2.07
2022-12-28T11:18:20.273Z,1.80
2022-12-28T11:20:50.855Z,2.00
2022-12-28T11:23:23.568Z,1.80
2022-12-28T11:25:51.159Z,1.70
2022-12-28T11:28:23.088Z,1.40
2022-12-28T11:30:51.869Z,1.30
2022-12-28T11:33:42.213Z,1.40
2022-12-28T11:36:18.183Z,1.40
2022-12-28T11:38:51.176Z,1.20
2022-12-28T11:41:27.549Z,1.30
2022-12-28T11:44:04.790Z,1.43
2022-12-28T11:46:31.450Z,1.57
2022-12-28T11:48:59.681Z,1.43
2022-12-28T11:51:29.566Z,1.60
2022-12-28T11:54:00.742Z,1.37
2022-12-28T11:56:47.442Z,1.90
2022-12-28T11:59:26.512Z,1.93
2022-12-28T12:01:56.092Z,1.80
2022-12-28T12:04:41.159Z,2.07
2022-12-28T12:07:23.675Z,1.90
2022-12-28T12:10:34.911Z,2.87
2022-12-28T12:13:23.994Z,2.90
2022-12-28T12:15:54.273Z,3.03
2022-12-28T12:18:25.636Z,2.77
2022-12-28T12:20:57.176Z,3.00
2022-12-28T12:23:33.541Z,3.10
2022-12-28T12:26:13.705Z,2.80
2022-12-28T12:28:46.093Z,2.90
2022-12-28T12:31:26.132Z,2.60
2022-12-28T12:34:00.615Z,2.70
2022-12-28T12:36:58.882Z,2.77
2022-12-28T12:39:46.814Z,2.53
2022-12-28T12:42:47.466Z,2.90
2022-12-28T12:45:31.188Z,2.83
2022-12-28T12:48:16.833Z,2.90
2022-12-28T12:51:05.094Z,2.50
2022-12-28T12:53:50.636Z,2.27
2022-12-28T12:56:48.314Z,2.30
2022-12-28T12:59:33.748Z,1.97
2022-12-28T13:02:35.881Z,1.90
2022-12-28T13:05:03.993Z,1.80
2022-12-28T13:07:31.305Z,1.57
2022-12-28T13:10:03.528Z,1.70
2022-12-28T13:12:30.452Z,1.60
2022-12-28T13:15:04.863Z,1.60
2022-12-28T13:17:35.937Z,1.77
2022-12-28T13:20:11.350Z,1.20
2022-12-28T13:22:42.595Z,1.30
2022-12-28T13:25:27.695Z,1.00
2022-12-28T13:27:55.416Z,1.73
2022-12-28T13:30:24.455Z,1.23
2022-12-28T13:32:54.004Z,1.00
2022-12-28T13:35:24.529Z,1.40
2022-12-28T13:38:14.638Z,1.20
2022-12-28T13:40:49.673Z,1.40
2022-12-28T13:43:25.457Z,1.43
2022-12-28T13:45:58.641Z,0.93
2022-12-28T13:48:26.980Z,1.20
2022-12-28T13:50:54.728Z,1.37
2022-12-28T13:53:25.320Z,1.40
2022-12-28T13:55:56.280Z,1.40
2022-12-28T13:58:31.636Z,1.47
2022-12-28T14:01:02.869Z,1.60
2022-12-28T14:03:36.028Z,1.60
2022-12-28T14:06:07.417Z,1.70
2022-12-28T14:08:37.721Z,1.83
2022-12-28T14:11:05.777Z,2.07
2022-12-28T14:13:34.331Z,2.00
2022-12-28T14:16:04.135Z,1.90
2022-12-28T14:18:34.865Z,1.90
2022-12-28T14:21:02.801Z,1.73
2022-12-28T14:23:35.765Z,1.90
2022-12-28T14:26:09.808Z,2.07
2022-12-28T14:28:41.541Z,1.57
2022-12-28T14:31:10.311Z,1.70
2022-12-28T14:33:52.197Z,1.70
2022-12-28T14:36:26.408Z,1.70
2022-12-28T14:39:01.155Z,1.30
2022-12-28T14:41:38.115Z,2.03
2022-12-28T14:44:13.601Z,1.50
2022-12-28T14:46:42.824Z,1.70
2022-12-28T14:49:33.714Z,1.80
2022-12-28T14:52:09.404Z,1.97
2022-12-28T14:54:50.677Z,2.37
2022-12-28T14:57:40.749Z,2.10
2022-12-28T15:00:21.227Z,2.70
2022-12-28T15:02:48.758Z,3.03
2022-12-28T15:05:39.228Z,3.20
2022-12-28T15:08:08.789Z,2.83
2022-12-28T15:10:40.356Z,3.63
2022-12-28T15:13:07.328Z,3.30
2022-12-28T15:15:34.390Z,3.50
2022-12-28T15:18:01.335Z,3.87
2022-12-28T15:20:28.183Z,4.30
2022-12-28T15:22:55.031Z,4.07
2022-12-28T15:25:21.933Z,4.83
2022-12-28T15:27:50.052Z,4.00
2022-12-28T15:30:20.585Z,3.80
2022-12-28T15:32:51.831Z,4.63
2022-12-28T15:35:19.039Z,4.20
2022-12-28T15:37:45.861Z,3.57
2022-12-28T15:40:12.697Z,3.80
2022-12-28T15:42:40.775Z,4.20
2022-12-28T15:45:09.190Z,4.57
2022-12-28T15:47:36.153Z,4.27
2022-12-28T15:50:03.583Z,3.60
2022-12-28T15:52:31.989Z,3.53
2022-12-28T15:54:59.139Z,4.03
2022-12-28T15:57:26.445Z,3.87
2022-12-28T15:59:54.664Z,3.30
2022-12-28T16:02:21.951Z,3.80
2022-12-28T16:04:50.004Z,3.37
2022-12-28T16:07:16.765Z,3.33
2022-12-28T16:09:43.517Z,3.90
2022-12-28T16:12:10.349Z,3.17
2022-12-28T16:14:37.159Z,2.90
2022-12-28T16:17:03.909Z,2.93
2022-12-28T16:19:30.700Z,2.87
2022-12-28T16:21:57.416Z,2.40
2022-12-28T16:24:24.135Z,2.40
2022-12-28T16:26:51.905Z,2.90
2022-12-28T16:29:18.634Z,3.30
2022-12-28T16:31:45.416Z,3.70
2022-12-28T16:34:17.345Z,7.23
2022-12-28T16:36:47.913Z,2.90
2022-12-28T16:39:17.535Z,3.10
2022-12-28T16:41:45.063Z,2.80
2022-12-28T16:44:18.052Z,2.73
2022-12-28T16:46:45.494Z,2.80
2022-12-28T16:49:12.796Z,2.47
2022-12-28T16:51:41.426Z,2.67
2022-12-28T16:54:08.743Z,2.80
2022-12-28T16:56:35.957Z,3.00
2022-12-28T16:59:03.269Z,2.70
2022-12-28T17:01:30.098Z,2.70
2022-12-28T17:04:03.410Z,2.80
2022-12-28T17:06:31.760Z,2.20
2022-12-28T17:09:22.519Z,2.00
2022-12-28T17:11:53.533Z,2.30
2022-12-28T17:14:36.243Z,1.80
2022-12-28T17:17:07.303Z,1.97
2022-12-28T17:19:34.322Z,1.73
2022-12-28T17:22:05.314Z,2.07
2022-12-28T17:24:32.176Z,1.93
2022-12-28T17:27:05.164Z,1.90
2022-12-28T17:29:33.857Z,2.20
2022-12-28T17:32:00.878Z,2.27
2022-12-28T17:34:28.946Z,2.20
2022-12-28T17:36:55.646Z,2.07
2022-12-28T17:39:24.884Z,2.03
2022-12-28T17:41:51.662Z,2.20
2022-12-28T17:44:18.388Z,2.00
2022-12-28T17:46:45.111Z,1.60
2022-12-28T17:49:13.964Z,2.10
2022-12-28T17:51:42.062Z,1.80
2022-12-28T17:54:11.279Z,1.80
2022-12-28T17:56:38.837Z,2.00
2022-12-28T17:59:05.662Z,1.77
2022-12-28T18:01:32.862Z,1.70
2022-12-28T18:03:59.964Z,1.60
2022-12-28T18:06:26.800Z,1.30
2022-12-28T18:08:53.537Z,1.50
2022-12-28T18:11:20.309Z,1.97
2022-12-28T18:13:47.696Z,2.37
2022-12-28T18:16:17.100Z,1.90
2022-12-28T18:18:43.873Z,1.50
2022-12-28T18:21:21.481Z,4.13
2022-12-28T18:23:50.598Z,2.00
2022-12-28T18:26:20.297Z,1.80
2022-12-28T18:28:47.025Z,1.90
2022-12-28T18:31:13.861Z,2.37
2022-12-28T18:33:40.659Z,2.10
2022-12-28T18:36:13.818Z,2.57
2022-12-28T18:38:44.033Z,3.07
2022-12-28T18:41:13.020Z,5.40
2022-12-28T18:43:40.400Z,5.10
2022-12-28T18:46:07.696Z,4.13
2022-12-28T18:48:37.393Z,4.30
2022-12-28T18:51:10.744Z,4.23
2022-12-28T18:53:37.887Z,4.43
2022-12-28T18:56:13.833Z,5.70
2022-12-28T18:58:41.683Z,5.00
2022-12-28T19:01:32.863Z,7.10
2022-12-28T19:04:01.222Z,5.63
2022-12-28T19:06:29.216Z,5.87
2022-12-28T19:08:59.798Z,6.43
2022-12-28T19:11:27.733Z,7.13
2022-12-28T19:13:54.551Z,7.90
2022-12-28T19:16:27.183Z,7.90
2022-12-28T19:18:57.964Z,8.47
2022-12-28T19:21:33.048Z,8.90
2022-12-28T19:24:19.980Z,8.53
2022-12-28T19:26:47.677Z,8.73
2022-12-28T19:29:15.681Z,9.13
2022-12-28T19:31:42.933Z,9.00
2022-12-28T19:34:09.763Z,9.23
2022-12-28T19:36:36.528Z,8.90
2022-12-28T19:39:03.271Z,8.80
2022-12-28T19:41:30.060Z,8.67
2022-12-28T19:43:57.171Z,9.50
2022-12-28T19:46:31.910Z,8.33
2022-12-28T19:49:00.968Z,8.20
2022-12-28T19:51:31.092Z,7.90
2022-12-28T19:53:59.089Z,7.97
2022-12-28T19:56:25.886Z,8.40
2022-12-28T19:58:54.420Z,7.57
2022-12-28T20:01:25.972Z,7.47
2022-12-28T20:03:54.386Z,7.10
2022-12-28T20:06:24.022Z,7.03
2022-12-28T20:08:52.370Z,7.43
2022-12-28T20:11:20.679Z,6.07
2022-12-28T20:13:52.191Z,6.00
2022-12-28T20:16:19.368Z,6.20
2022-12-28T20:18:50.833Z,5.33
2022-12-28T20:21:20.751Z,5.30
2022-12-28T20:23:53.002Z,5.23
2022-12-28T20:26:21.699Z,5.47
2022-12-28T20:28:49.501Z,5.80
2022-12-28T20:31:16.875Z,5.27
2022-12-28T20:33:44.120Z,4.90
2022-12-28T20:36:13.950Z,5.60
2022-12-28T20:38:40.862Z,5.10
2022-12-28T20:41:37.701Z,5.40
2022-12-28T20:44:09.092Z,5.00
2022-12-28T20:46:36.178Z,4.93
2022-12-28T20:49:03.655Z,5.40
2022-12-28T20:51:30.540Z,5.17
2022-12-28T20:53:57.263Z,5.43
2022-12-28T20:56:24.033Z,4.37
2022-12-28T20:58:50.735Z,4.60
2022-12-28T21:01:18.020Z,4.73
2022-12-28T21:03:45.621Z,4.40
2022-12-28T21:06:12.852Z,4.67
2022-12-28T21:08:39.588Z,4.37
2022-12-28T21:11:06.574Z,3.90
2022-12-28T21:13:33.323Z,4.30
2022-12-28T21:16:04.298Z,4.50
2022-12-28T21:18:31.631Z,4.07
2022-12-28T21:20:59.979Z,3.47
2022-12-28T21:23:27.921Z,4.43
2022-12-28T21:26:05.842Z,4.00
2022-12-28T21:28:33.879Z,5.20
2022-12-28T21:31:03.644Z,4.10
2022-12-28T21:33:31.188Z,4.13
2022-12-28T21:36:03.216Z,4.47
2022-12-28T21:38:32.085Z,3.70
2022-12-28T21:41:01.930Z,3.50
2022-12-28T21:43:30.284Z,4.13
2022-12-28T21:46:05.333Z,3.37
2022-12-28T21:48:33.048Z,3.60
2022-12-28T21:51:05.811Z,3.57
2022-12-28T21:53:32.684Z,4.07
2022-12-28T21:55:59.372Z,3.57
2022-12-28T21:58:26.575Z,3.20
2022-12-28T22:01:19.398Z,3.80
2022-12-28T22:04:04.810Z,3.50
2022-12-28T22:06:31.701Z,3.50
2022-12-28T22:09:16.937Z,3.33
2022-12-28T22:12:06.609Z,3.37
2022-12-28T22:14:33.432Z,3.20
2022-12-28T22:17:00.181Z,2.90
2022-12-28T22:19:27.762Z,3.40
2022-12-28T22:21:54.623Z,3.30
2022-12-28T22:24:21.325Z,3.70
2022-12-28T22:26:48.093Z,3.57
2022-12-28T22:29:15.488Z,3.23
2022-12-28T22:31:42.339Z,3.50
2022-12-28T22:34:09.062Z,3.67
2022-12-28T22:36:35.990Z,3.20
2022-12-28T22:39:02.612Z,3.30
2022-12-28T22:41:29.286Z,3.37
2022-12-28T22:43:56.034Z,3.50
2022-12-28T22:46:22.719Z,3.20
2022-12-28T22:48:49.554Z,3.20
2022-12-28T22:51:16.807Z,3.37
2022-12-28T22:53:44.619Z,2.90
2022-12-28T22:56:20.644Z,3.07
2022-12-28T22:58:47.776Z,3.60
2022-12-28T23:01:17.889Z,2.90
2022-12-28T23:03:46.468Z,3.20
2022-12-28T23:06:16.280Z,2.80
2022-12-28T23:08:43.106Z,3.10
2022-12-28T23:11:31.942Z,3.07
2022-12-28T23:14:18.995Z,2.87
2022-12-28T23:16:45.858Z,2.80
2022-12-28T23:19:31.183Z,2.80
2022-12-28T23:22:16.466Z,3.77
2022-12-28T23:25:01.658Z,3.00
2022-12-28T23:27:38.747Z,2.90
2022-12-28T23:30:08.234Z,2.60
2022-12-28T23:32:35.226Z,2.77
2022-12-28T23:35:02.331Z,2.90
2022-12-28T23:37:29.073Z,2.83
2022-12-28T23:39:55.774Z,3.30
2022-12-28T23:42:22.505Z,4.00
2022-12-28T23:44:49.811Z,3.33
2022-12-28T23:47:17.104Z,3.57
2022-12-28T23:49:43.909Z,4.00
2022-12-28T23:52:11.000Z,4.47
2022-12-28T23:54:38.422Z,4.37
2022-12-28T23:57:06.627Z,4.57
2022-12-28T23:59:33.327Z,4.80
